sensor_id;sensor_type;location;lat;lon;timestamp;P1;durP1;ratioP1;P2;durP2;ratioP2
35648;SDS011;21768;48.562;13.414;2023-07-16T00:01:39;7.50;;;4.10;;
35648;SDS011;21768;48.562;13.414;2023-07-16T00:04:05;10.00;;;4.00;;
35648;SDS011;21768;48.562;13.414;2023-07-16T00:06:30;9.73;;;4.07;;
35648;SDS011;21768;48.562;13.414;2023-07-16T00:08:55;4.45;;;3.60;;
35648;SDS011;21768;48.562;13.414;2023-07-16T00:11:21;10.73;;;4.10;;
35648;SDS011;21768;48.562;13.414;2023-07-16T00:13:46;8.15;;;3.97;;
35648;SDS011;21768;48.562;13.414;2023-07-16T00:16:13;5.13;;;3.78;;
35648;SDS011;21768;48.562;13.414;2023-07-16T00:18:38;5.30;;;3.72;;
35648;SDS011;21768;48.562;13.414;2023-07-16T00:21:04;6.18;;;3.95;;
35648;SDS011;21768;48.562;13.414;2023-07-16T00:23:30;4.32;;;3.70;;
35648;SDS011;21768;48.562;13.414;2023-07-16T00:25:55;5.93;;;3.83;;
35648;SDS011;21768;48.562;13.414;2023-07-16T00:28:20;8.05;;;4.00;;
35648;SDS011;21768;48.562;13.414;2023-07-16T00:30:46;7.50;;;3.80;;
35648;SDS011;21768;48.562;13.414;2023-07-16T00:33:11;5.22;;;3.88;;
35648;SDS011;21768;48.562;13.414;2023-07-16T00:35:37;4.40;;;3.53;;
35648;SDS011;21768;48.562;13.414;2023-07-16T00:38:02;8.68;;;4.22;;
35648;SDS011;21768;48.562;13.414;2023-07-16T00:40:27;5.40;;;3.83;;
35648;SDS011;21768;48.562;13.414;2023-07-16T00:42:53;6.07;;;3.72;;
35648;SDS011;21768;48.562;13.414;2023-07-16T00:45:18;7.72;;;3.72;;
35648;SDS011;21768;48.562;13.414;2023-07-16T00:47:43;6.35;;;3.38;;
35648;SDS011;21768;48.562;13.414;2023-07-16T00:50:10;6.18;;;3.90;;
35648;SDS011;21768;48.562;13.414;2023-07-16T00:52:36;5.50;;;3.55;;
35648;SDS011;21768;48.562;13.414;2023-07-16T00:55:02;6.07;;;3.55;;
35648;SDS011;21768;48.562;13.414;2023-07-16T00:57:28;5.88;;;3.60;;
35648;SDS011;21768;48.562;13.414;2023-07-16T00:59:54;6.05;;;3.40;;
35648;SDS011;21768;48.562;13.414;2023-07-16T01:02:19;5.82;;;3.70;;
35648;SDS011;21768;48.562;13.414;2023-07-16T01:04:45;7.40;;;3.45;;
35648;SDS011;21768;48.562;13.414;2023-07-16T01:07:11;6.55;;;3.67;;
35648;SDS011;21768;48.562;13.414;2023-07-16T01:09:42;5.82;;;3.58;;
35648;SDS011;21768;48.562;13.414;2023-07-16T01:12:08;5.38;;;3.78;;
35648;SDS011;21768;48.562;13.414;2023-07-16T01:14:35;7.55;;;3.60;;
35648;SDS011;21768;48.562;13.414;2023-07-16T01:17:04;7.57;;;3.63;;
35648;SDS011;21768;48.562;13.414;2023-07-16T01:19:31;4.85;;;3.67;;
35648;SDS011;21768;48.562;13.414;2023-07-16T01:24:53;7.05;;;3.40;;
35648;SDS011;21768;48.562;13.414;2023-07-16T01:30:14;9.07;;;3.15;;
35648;SDS011;21768;48.562;13.414;2023-07-16T01:32:42;9.18;;;3.58;;
35648;SDS011;21768;48.562;13.414;2023-07-16T01:35:08;8.85;;;3.30;;
35648;SDS011;21768;48.562;13.414;2023-07-16T01:37:35;13.20;;;3.60;;
35648;SDS011;21768;48.562;13.414;2023-07-16T01:40:01;14.05;;;3.33;;
35648;SDS011;21768;48.562;13.414;2023-07-16T01:42:27;7.38;;;2.75;;
35648;SDS011;21768;48.562;13.414;2023-07-16T01:44:53;12.65;;;3.35;;
35648;SDS011;21768;48.562;13.414;2023-07-16T01:47:24;11.23;;;2.95;;
35648;SDS011;21768;48.562;13.414;2023-07-16T01:50:01;10.75;;;3.17;;
35648;SDS011;21768;48.562;13.414;2023-07-16T01:52:28;9.82;;;3.53;;
35648;SDS011;21768;48.562;13.414;2023-07-16T01:54:53;6.15;;;3.15;;
35648;SDS011;21768;48.562;13.414;2023-07-16T01:57:18;10.98;;;3.55;;
35648;SDS011;21768;48.562;13.414;2023-07-16T01:59:44;7.22;;;2.85;;
35648;SDS011;21768;48.562;13.414;2023-07-16T02:02:11;5.53;;;3.05;;
35648;SDS011;21768;48.562;13.414;2023-07-16T02:04:36;5.53;;;2.90;;
35648;SDS011;21768;48.562;13.414;2023-07-16T02:07:01;4.60;;;2.90;;
35648;SDS011;21768;48.562;13.414;2023-07-16T02:09:27;10.18;;;2.90;;
35648;SDS011;21768;48.562;13.414;2023-07-16T02:11:52;10.60;;;3.13;;
35648;SDS011;21768;48.562;13.414;2023-07-16T02:14:17;4.95;;;2.80;;
35648;SDS011;21768;48.562;13.414;2023-07-16T02:16:43;8.88;;;2.90;;
35648;SDS011;21768;48.562;13.414;2023-07-16T02:19:08;7.80;;;2.67;;
35648;SDS011;21768;48.562;13.414;2023-07-16T02:21:34;6.13;;;3.25;;
35648;SDS011;21768;48.562;13.414;2023-07-16T02:23:59;9.88;;;3.03;;
35648;SDS011;21768;48.562;13.414;2023-07-16T02:26:24;7.07;;;3.00;;
35648;SDS011;21768;48.562;13.414;2023-07-16T02:28:50;9.65;;;3.17;;
35648;SDS011;21768;48.562;13.414;2023-07-16T02:31:15;6.82;;;2.65;;
35648;SDS011;21768;48.562;13.414;2023-07-16T02:33:41;4.78;;;2.70;;
35648;SDS011;21768;48.562;13.414;2023-07-16T02:36:06;4.15;;;2.72;;
35648;SDS011;21768;48.562;13.414;2023-07-16T02:38:32;6.40;;;3.00;;
35648;SDS011;21768;48.562;13.414;2023-07-16T02:40:57;6.28;;;2.28;;
35648;SDS011;21768;48.562;13.414;2023-07-16T02:43:23;3.95;;;2.10;;
35648;SDS011;21768;48.562;13.414;2023-07-16T02:45:48;8.23;;;2.30;;
35648;SDS011;21768;48.562;13.414;2023-07-16T02:48:14;5.25;;;2.50;;
35648;SDS011;21768;48.562;13.414;2023-07-16T02:50:39;10.25;;;2.35;;
35648;SDS011;21768;48.562;13.414;2023-07-16T02:53:05;4.47;;;2.40;;
35648;SDS011;21768;48.562;13.414;2023-07-16T02:55:31;7.72;;;2.75;;
35648;SDS011;21768;48.562;13.414;2023-07-16T02:57:57;3.95;;;2.30;;
35648;SDS011;21768;48.562;13.414;2023-07-16T03:00:22;5.15;;;2.42;;
35648;SDS011;21768;48.562;13.414;2023-07-16T03:02:48;3.08;;;2.33;;
35648;SDS011;21768;48.562;13.414;2023-07-16T03:05:16;4.55;;;2.42;;
35648;SDS011;21768;48.562;13.414;2023-07-16T03:07:42;3.65;;;2.35;;
35648;SDS011;21768;48.562;13.414;2023-07-16T03:10:08;4.82;;;2.50;;
35648;SDS011;21768;48.562;13.414;2023-07-16T03:12:34;3.33;;;2.20;;
35648;SDS011;21768;48.562;13.414;2023-07-16T03:14:59;3.72;;;2.00;;
35648;SDS011;21768;48.562;13.414;2023-07-16T03:17:24;5.43;;;2.13;;
35648;SDS011;21768;48.562;13.414;2023-07-16T03:19:50;6.60;;;2.40;;
35648;SDS011;21768;48.562;13.414;2023-07-16T03:22:15;3.95;;;2.22;;
35648;SDS011;21768;48.562;13.414;2023-07-16T03:24:41;7.90;;;2.60;;
35648;SDS011;21768;48.562;13.414;2023-07-16T03:27:06;9.20;;;2.80;;
35648;SDS011;21768;48.562;13.414;2023-07-16T03:29:34;5.57;;;2.63;;
35648;SDS011;21768;48.562;13.414;2023-07-16T03:32:00;6.00;;;2.90;;
35648;SDS011;21768;48.562;13.414;2023-07-16T03:34:25;6.22;;;2.50;;
35648;SDS011;21768;48.562;13.414;2023-07-16T03:36:51;7.53;;;2.90;;
35648;SDS011;21768;48.562;13.414;2023-07-16T03:39:16;5.10;;;2.58;;
35648;SDS011;21768;48.562;13.414;2023-07-16T03:41:42;5.82;;;2.88;;
35648;SDS011;21768;48.562;13.414;2023-07-16T03:44:07;5.20;;;2.50;;
35648;SDS011;21768;48.562;13.414;2023-07-16T03:46:32;4.22;;;2.47;;
35648;SDS011;21768;48.562;13.414;2023-07-16T03:48:58;4.60;;;2.42;;
35648;SDS011;21768;48.562;13.414;2023-07-16T03:51:23;7.85;;;3.05;;
35648;SDS011;21768;48.562;13.414;2023-07-16T03:53:49;5.22;;;2.78;;
35648;SDS011;21768;48.562;13.414;2023-07-16T03:56:14;5.95;;;3.00;;
35648;SDS011;21768;48.562;13.414;2023-07-16T03:58:39;4.95;;;2.72;;
35648;SDS011;21768;48.562;13.414;2023-07-16T04:01:05;7.30;;;3.03;;
35648;SDS011;21768;48.562;13.414;2023-07-16T04:03:30;4.18;;;2.60;;
35648;SDS011;21768;48.562;13.414;2023-07-16T04:06:05;5.05;;;2.75;;
35648;SDS011;21768;48.562;13.414;2023-07-16T04:08:34;6.22;;;2.67;;
35648;SDS011;21768;48.562;13.414;2023-07-16T04:10:59;7.55;;;3.03;;
35648;SDS011;21768;48.562;13.414;2023-07-16T04:13:25;5.47;;;2.58;;
35648;SDS011;21768;48.562;13.414;2023-07-16T04:15:50;9.45;;;3.00;;
35648;SDS011;21768;48.562;13.414;2023-07-16T04:18:19;7.22;;;3.10;;
35648;SDS011;21768;48.562;13.414;2023-07-16T04:20:46;6.38;;;3.00;;
35648;SDS011;21768;48.562;13.414;2023-07-16T04:23:11;4.15;;;2.60;;
35648;SDS011;21768;48.562;13.414;2023-07-16T04:25:37;9.98;;;2.95;;
35648;SDS011;21768;48.562;13.414;2023-07-16T04:28:02;3.47;;;2.60;;
35648;SDS011;21768;48.562;13.414;2023-07-16T04:30:29;7.57;;;2.80;;
35648;SDS011;21768;48.562;13.414;2023-07-16T04:32:54;10.27;;;2.83;;
35648;SDS011;21768;48.562;13.414;2023-07-16T04:35:19;4.97;;;3.05;;
35648;SDS011;21768;48.562;13.414;2023-07-16T04:37:45;4.82;;;3.03;;
35648;SDS011;21768;48.562;13.414;2023-07-16T04:40:10;8.43;;;3.05;;
35648;SDS011;21768;48.562;13.414;2023-07-16T04:42:36;7.07;;;3.17;;
35648;SDS011;21768;48.562;13.414;2023-07-16T04:45:01;7.00;;;2.70;;
35648;SDS011;21768;48.562;13.414;2023-07-16T04:47:27;6.45;;;2.97;;
35648;SDS011;21768;48.562;13.414;2023-07-16T04:49:53;5.65;;;3.05;;
35648;SDS011;21768;48.562;13.414;2023-07-16T04:52:18;7.35;;;2.63;;
35648;SDS011;21768;48.562;13.414;2023-07-16T04:54:44;7.10;;;2.88;;
35648;SDS011;21768;48.562;13.414;2023-07-16T04:57:09;4.53;;;2.65;;
35648;SDS011;21768;48.562;13.414;2023-07-16T04:59:34;5.07;;;2.42;;
35648;SDS011;21768;48.562;13.414;2023-07-16T05:02:01;3.58;;;2.60;;
35648;SDS011;21768;48.562;13.414;2023-07-16T05:04:29;7.82;;;2.95;;
35648;SDS011;21768;48.562;13.414;2023-07-16T05:06:55;4.95;;;2.83;;
35648;SDS011;21768;48.562;13.414;2023-07-16T05:09:20;6.30;;;2.60;;
35648;SDS011;21768;48.562;13.414;2023-07-16T05:11:46;7.30;;;3.50;;
35648;SDS011;21768;48.562;13.414;2023-07-16T05:14:11;3.33;;;2.60;;
35648;SDS011;21768;48.562;13.414;2023-07-16T05:16:37;4.22;;;2.63;;
35648;SDS011;21768;48.562;13.414;2023-07-16T05:19:02;7.95;;;2.70;;
35648;SDS011;21768;48.562;13.414;2023-07-16T05:21:27;4.22;;;2.75;;
35648;SDS011;21768;48.562;13.414;2023-07-16T05:23:53;3.95;;;2.65;;
35648;SDS011;21768;48.562;13.414;2023-07-16T05:26:18;7.13;;;2.80;;
35648;SDS011;21768;48.562;13.414;2023-07-16T05:28:44;7.82;;;2.28;;
35648;SDS011;21768;48.562;13.414;2023-07-16T05:31:09;5.88;;;2.35;;
35648;SDS011;21768;48.562;13.414;2023-07-16T05:33:34;5.50;;;2.45;;
35648;SDS011;21768;48.562;13.414;2023-07-16T05:36:00;6.55;;;2.63;;
35648;SDS011;21768;48.562;13.414;2023-07-16T05:38:25;3.97;;;2.40;;
35648;SDS011;21768;48.562;13.414;2023-07-16T05:40:51;4.72;;;2.22;;
35648;SDS011;21768;48.562;13.414;2023-07-16T05:43:16;6.63;;;2.60;;
35648;SDS011;21768;48.562;13.414;2023-07-16T05:45:42;4.57;;;2.63;;
35648;SDS011;21768;48.562;13.414;2023-07-16T05:48:07;6.28;;;2.75;;
35648;SDS011;21768;48.562;13.414;2023-07-16T05:50:33;4.22;;;2.53;;
35648;SDS011;21768;48.562;13.414;2023-07-16T05:52:58;3.65;;;2.28;;
35648;SDS011;21768;48.562;13.414;2023-07-16T05:55:24;4.68;;;2.55;;
35648;SDS011;21768;48.562;13.414;2023-07-16T05:57:50;4.13;;;2.60;;
35648;SDS011;21768;48.562;13.414;2023-07-16T06:00:15;9.50;;;2.38;;
35648;SDS011;21768;48.562;13.414;2023-07-16T06:02:41;3.53;;;2.20;;
35648;SDS011;21768;48.562;13.414;2023-07-16T06:05:07;4.20;;;2.28;;
35648;SDS011;21768;48.562;13.414;2023-07-16T06:07:32;3.33;;;2.17;;
35648;SDS011;21768;48.562;13.414;2023-07-16T06:09:58;4.47;;;2.28;;
35648;SDS011;21768;48.562;13.414;2023-07-16T06:12:24;6.07;;;2.40;;
35648;SDS011;21768;48.562;13.414;2023-07-16T06:14:49;4.60;;;2.35;;
35648;SDS011;21768;48.562;13.414;2023-07-16T06:17:15;3.40;;;2.10;;
35648;SDS011;21768;48.562;13.414;2023-07-16T06:19:40;3.25;;;2.28;;
35648;SDS011;21768;48.562;13.414;2023-07-16T06:22:05;7.15;;;2.13;;
35648;SDS011;21768;48.562;13.414;2023-07-16T06:24:32;4.90;;;2.45;;
35648;SDS011;21768;48.562;13.414;2023-07-16T06:26:57;3.05;;;2.13;;
35648;SDS011;21768;48.562;13.414;2023-07-16T06:29:23;2.75;;;2.10;;
35648;SDS011;21768;48.562;13.414;2023-07-16T06:31:55;5.35;;;2.30;;
35648;SDS011;21768;48.562;13.414;2023-07-16T06:34:24;4.88;;;2.20;;
35648;SDS011;21768;48.562;13.414;2023-07-16T06:36:50;4.32;;;2.45;;
35648;SDS011;21768;48.562;13.414;2023-07-16T06:39:15;3.50;;;2.42;;
35648;SDS011;21768;48.562;13.414;2023-07-16T06:41:40;3.92;;;2.30;;
35648;SDS011;21768;48.562;13.414;2023-07-16T06:44:06;3.97;;;2.38;;
35648;SDS011;21768;48.562;13.414;2023-07-16T06:46:31;3.08;;;2.00;;
35648;SDS011;21768;48.562;13.414;2023-07-16T06:48:56;4.28;;;2.30;;
35648;SDS011;21768;48.562;13.414;2023-07-16T06:51:22;2.65;;;2.05;;
35648;SDS011;21768;48.562;13.414;2023-07-16T06:53:47;3.67;;;2.38;;
35648;SDS011;21768;48.562;13.414;2023-07-16T06:56:13;2.25;;;1.83;;
35648;SDS011;21768;48.562;13.414;2023-07-16T06:58:38;7.57;;;2.20;;
35648;SDS011;21768;48.562;13.414;2023-07-16T07:01:03;3.78;;;2.35;;
35648;SDS011;21768;48.562;13.414;2023-07-16T07:03:29;4.18;;;2.03;;
35648;SDS011;21768;48.562;13.414;2023-07-16T07:05:54;3.50;;;1.80;;
35648;SDS011;21768;48.562;13.414;2023-07-16T07:08:20;2.72;;;2.08;;
35648;SDS011;21768;48.562;13.414;2023-07-16T07:10:46;2.90;;;2.22;;
35648;SDS011;21768;48.562;13.414;2023-07-16T07:13:13;4.07;;;2.17;;
35648;SDS011;21768;48.562;13.414;2023-07-16T07:15:38;3.33;;;2.20;;
35648;SDS011;21768;48.562;13.414;2023-07-16T07:18:04;2.90;;;2.10;;
35648;SDS011;21768;48.562;13.414;2023-07-16T07:20:29;3.70;;;2.20;;
35648;SDS011;21768;48.562;13.414;2023-07-16T07:22:55;3.97;;;1.90;;
35648;SDS011;21768;48.562;13.414;2023-07-16T07:25:20;3.95;;;2.13;;
35648;SDS011;21768;48.562;13.414;2023-07-16T07:27:45;3.35;;;2.40;;
35648;SDS011;21768;48.562;13.414;2023-07-16T07:30:11;3.47;;;2.28;;
35648;SDS011;21768;48.562;13.414;2023-07-16T07:32:36;2.90;;;2.38;;
35648;SDS011;21768;48.562;13.414;2023-07-16T07:35:03;3.67;;;2.17;;
35648;SDS011;21768;48.562;13.414;2023-07-16T07:37:29;4.95;;;2.25;;
35648;SDS011;21768;48.562;13.414;2023-07-16T07:39:54;5.43;;;1.90;;
35648;SDS011;21768;48.562;13.414;2023-07-16T07:42:20;3.75;;;2.10;;
35648;SDS011;21768;48.562;13.414;2023-07-16T07:44:45;3.85;;;2.38;;
35648;SDS011;21768;48.562;13.414;2023-07-16T07:47:11;12.07;;;2.08;;
35648;SDS011;21768;48.562;13.414;2023-07-16T07:49:36;2.70;;;1.88;;
35648;SDS011;21768;48.562;13.414;2023-07-16T07:52:02;5.43;;;3.47;;
35648;SDS011;21768;48.562;13.414;2023-07-16T07:54:27;2.75;;;1.60;;
35648;SDS011;21768;48.562;13.414;2023-07-16T07:56:53;2.60;;;1.70;;
35648;SDS011;21768;48.562;13.414;2023-07-16T07:59:18;4.47;;;1.80;;
35648;SDS011;21768;48.562;13.414;2023-07-16T08:01:44;4.07;;;1.85;;
35648;SDS011;21768;48.562;13.414;2023-07-16T08:04:09;3.65;;;1.63;;
35648;SDS011;21768;48.562;13.414;2023-07-16T08:06:34;4.10;;;1.95;;
35648;SDS011;21768;48.562;13.414;2023-07-16T08:09:00;3.78;;;1.90;;
35648;SDS011;21768;48.562;13.414;2023-07-16T08:11:25;2.70;;;1.85;;
35648;SDS011;21768;48.562;13.414;2023-07-16T08:13:50;3.25;;;1.85;;
35648;SDS011;21768;48.562;13.414;2023-07-16T08:16:16;2.53;;;1.73;;
35648;SDS011;21768;48.562;13.414;2023-07-16T08:18:41;2.97;;;1.98;;
35648;SDS011;21768;48.562;13.414;2023-07-16T08:21:07;1.90;;;1.70;;
35648;SDS011;21768;48.562;13.414;2023-07-16T08:23:32;1.95;;;1.60;;
35648;SDS011;21768;48.562;13.414;2023-07-16T08:25:58;3.20;;;1.83;;
35648;SDS011;21768;48.562;13.414;2023-07-16T08:28:23;2.35;;;1.50;;
35648;SDS011;21768;48.562;13.414;2023-07-16T08:30:48;2.42;;;1.50;;
35648;SDS011;21768;48.562;13.414;2023-07-16T08:33:14;2.00;;;1.30;;
35648;SDS011;21768;48.562;13.414;2023-07-16T08:35:40;2.85;;;1.55;;
35648;SDS011;21768;48.562;13.414;2023-07-16T08:38:06;2.00;;;1.27;;
35648;SDS011;21768;48.562;13.414;2023-07-16T08:40:35;1.98;;;1.40;;
35648;SDS011;21768;48.562;13.414;2023-07-16T08:43:01;2.38;;;1.33;;
35648;SDS011;21768;48.562;13.414;2023-07-16T08:45:30;1.98;;;1.50;;
35648;SDS011;21768;48.562;13.414;2023-07-16T08:48:01;2.55;;;1.30;;
35648;SDS011;21768;48.562;13.414;2023-07-16T08:50:27;4.35;;;1.92;;
35648;SDS011;21768;48.562;13.414;2023-07-16T08:52:54;2.15;;;1.50;;
35648;SDS011;21768;48.562;13.414;2023-07-16T08:55:20;2.05;;;1.45;;
35648;SDS011;21768;48.562;13.414;2023-07-16T08:57:46;3.67;;;2.00;;
35648;SDS011;21768;48.562;13.414;2023-07-16T09:00:12;2.17;;;1.55;;
35648;SDS011;21768;48.562;13.414;2023-07-16T09:02:39;3.13;;;1.65;;
35648;SDS011;21768;48.562;13.414;2023-07-16T09:05:05;6.55;;;1.60;;
35648;SDS011;21768;48.562;13.414;2023-07-16T09:07:31;2.47;;;1.60;;
35648;SDS011;21768;48.562;13.414;2023-07-16T09:09:57;2.22;;;1.40;;
35648;SDS011;21768;48.562;13.414;2023-07-16T09:12:24;2.22;;;1.70;;
35648;SDS011;21768;48.562;13.414;2023-07-16T09:14:50;3.35;;;1.90;;
35648;SDS011;21768;48.562;13.414;2023-07-16T09:17:19;1.77;;;1.60;;
35648;SDS011;21768;48.562;13.414;2023-07-16T09:19:46;1.92;;;1.73;;
35648;SDS011;21768;48.562;13.414;2023-07-16T09:22:12;4.13;;;1.85;;
35648;SDS011;21768;48.562;13.414;2023-07-16T09:24:37;2.38;;;1.73;;
35648;SDS011;21768;48.562;13.414;2023-07-16T09:27:02;3.25;;;1.80;;
35648;SDS011;21768;48.562;13.414;2023-07-16T09:29:28;2.70;;;1.60;;
35648;SDS011;21768;48.562;13.414;2023-07-16T09:32:00;4.30;;;1.70;;
35648;SDS011;21768;48.562;13.414;2023-07-16T09:34:30;2.13;;;1.70;;
35648;SDS011;21768;48.562;13.414;2023-07-16T09:36:59;3.63;;;1.92;;
35648;SDS011;21768;48.562;13.414;2023-07-16T09:39:26;2.80;;;1.55;;
35648;SDS011;21768;48.562;13.414;2023-07-16T09:41:52;4.43;;;1.80;;
35648;SDS011;21768;48.562;13.414;2023-07-16T09:44:18;6.90;;;1.88;;
35648;SDS011;21768;48.562;13.414;2023-07-16T09:46:44;2.58;;;1.88;;
35648;SDS011;21768;48.562;13.414;2023-07-16T09:49:11;3.88;;;2.00;;
35648;SDS011;21768;48.562;13.414;2023-07-16T09:51:37;3.00;;;1.73;;
35648;SDS011;21768;48.562;13.414;2023-07-16T09:54:03;3.05;;;1.90;;
35648;SDS011;21768;48.562;13.414;2023-07-16T09:56:40;3.05;;;2.17;;
35648;SDS011;21768;48.562;13.414;2023-07-16T09:59:23;4.55;;;2.22;;
35648;SDS011;21768;48.562;13.414;2023-07-16T10:01:52;3.13;;;1.95;;
35648;SDS011;21768;48.562;13.414;2023-07-16T10:04:18;5.55;;;1.73;;
35648;SDS011;21768;48.562;13.414;2023-07-16T10:06:48;2.97;;;1.92;;
35648;SDS011;21768;48.562;13.414;2023-07-16T10:09:14;3.13;;;1.90;;
35648;SDS011;21768;48.562;13.414;2023-07-16T10:11:40;4.40;;;1.95;;
35648;SDS011;21768;48.562;13.414;2023-07-16T10:14:07;4.07;;;2.10;;
35648;SDS011;21768;48.562;13.414;2023-07-16T10:16:35;5.45;;;1.83;;
35648;SDS011;21768;48.562;13.414;2023-07-16T10:19:04;1.90;;;1.73;;
35648;SDS011;21768;48.562;13.414;2023-07-16T10:21:29;2.20;;;1.80;;
35648;SDS011;21768;48.562;13.414;2023-07-16T10:24:03;3.65;;;1.95;;
35648;SDS011;21768;48.562;13.414;2023-07-16T10:26:30;3.03;;;1.80;;
35648;SDS011;21768;48.562;13.414;2023-07-16T10:28:55;3.67;;;1.80;;
35648;SDS011;21768;48.562;13.414;2023-07-16T10:31:22;10.57;;;7.55;;
35648;SDS011;21768;48.562;13.414;2023-07-16T10:33:58;2.38;;;1.73;;
35648;SDS011;21768;48.562;13.414;2023-07-16T10:36:29;3.47;;;1.95;;
35648;SDS011;21768;48.562;13.414;2023-07-16T10:38:55;3.75;;;1.98;;
35648;SDS011;21768;48.562;13.414;2023-07-16T10:41:28;2.63;;;1.80;;
35648;SDS011;21768;48.562;13.414;2023-07-16T10:43:53;2.10;;;1.75;;
35648;SDS011;21768;48.562;13.414;2023-07-16T10:46:19;2.35;;;1.75;;
35648;SDS011;21768;48.562;13.414;2023-07-16T10:48:46;1.80;;;1.70;;
35648;SDS011;21768;48.562;13.414;2023-07-16T10:51:14;3.28;;;1.95;;
35648;SDS011;21768;48.562;13.414;2023-07-16T10:53:41;1.60;;;1.50;;
35648;SDS011;21768;48.562;13.414;2023-07-16T10:56:07;2.88;;;1.92;;
35648;SDS011;21768;48.562;13.414;2023-07-16T10:58:33;5.03;;;1.90;;
35648;SDS011;21768;48.562;13.414;2023-07-16T11:00:58;3.28;;;1.92;;
35648;SDS011;21768;48.562;13.414;2023-07-16T11:03:24;4.95;;;1.60;;
35648;SDS011;21768;48.562;13.414;2023-07-16T11:05:49;3.20;;;1.60;;
35648;SDS011;21768;48.562;13.414;2023-07-16T11:08:21;3.70;;;1.85;;
35648;SDS011;21768;48.562;13.414;2023-07-16T11:10:53;3.67;;;1.98;;
35648;SDS011;21768;48.562;13.414;2023-07-16T11:13:25;3.22;;;1.50;;
35648;SDS011;21768;48.562;13.414;2023-07-16T11:15:54;2.15;;;1.95;;
35648;SDS011;21768;48.562;13.414;2023-07-16T11:18:23;3.05;;;1.60;;
35648;SDS011;21768;48.562;13.414;2023-07-16T11:20:51;2.92;;;2.00;;
35648;SDS011;21768;48.562;13.414;2023-07-16T11:23:17;2.53;;;1.90;;
35648;SDS011;21768;48.562;13.414;2023-07-16T11:25:49;3.78;;;1.88;;
35648;SDS011;21768;48.562;13.414;2023-07-16T11:28:14;2.42;;;2.08;;
35648;SDS011;21768;48.562;13.414;2023-07-16T11:30:41;1.90;;;1.55;;
35648;SDS011;21768;48.562;13.414;2023-07-16T11:33:12;3.13;;;1.65;;
35648;SDS011;21768;48.562;13.414;2023-07-16T11:35:38;6.65;;;1.75;;
35648;SDS011;21768;48.562;13.414;2023-07-16T11:38:05;2.28;;;1.67;;
35648;SDS011;21768;48.562;13.414;2023-07-16T11:40:31;1.90;;;1.67;;
35648;SDS011;21768;48.562;13.414;2023-07-16T11:43:12;2.65;;;1.90;;
35648;SDS011;21768;48.562;13.414;2023-07-16T11:45:37;1.90;;;1.70;;
35648;SDS011;21768;48.562;13.414;2023-07-16T11:48:04;2.00;;;1.80;;
35648;SDS011;21768;48.562;13.414;2023-07-16T11:50:30;2.13;;;1.75;;
35648;SDS011;21768;48.562;13.414;2023-07-16T11:53:00;4.53;;;3.33;;
35648;SDS011;21768;48.562;13.414;2023-07-16T11:55:26;3.13;;;1.77;;
35648;SDS011;21768;48.562;13.414;2023-07-16T11:57:52;4.40;;;1.80;;
35648;SDS011;21768;48.562;13.414;2023-07-16T12:00:18;2.50;;;1.73;;
35648;SDS011;21768;48.562;13.414;2023-07-16T12:02:44;2.42;;;1.50;;
35648;SDS011;21768;48.562;13.414;2023-07-16T12:05:16;2.10;;;1.45;;
35648;SDS011;21768;48.562;13.414;2023-07-16T12:07:42;2.40;;;2.13;;
35648;SDS011;21768;48.562;13.414;2023-07-16T12:10:07;2.10;;;1.50;;
35648;SDS011;21768;48.562;13.414;2023-07-16T12:12:33;5.68;;;1.65;;
35648;SDS011;21768;48.562;13.414;2023-07-16T12:15:02;4.40;;;1.77;;
35648;SDS011;21768;48.562;13.414;2023-07-16T12:17:28;2.75;;;1.90;;
35648;SDS011;21768;48.562;13.414;2023-07-16T12:19:54;5.90;;;1.80;;
35648;SDS011;21768;48.562;13.414;2023-07-16T12:22:19;3.25;;;1.70;;
35648;SDS011;21768;48.562;13.414;2023-07-16T12:24:46;2.47;;;1.83;;
35648;SDS011;21768;48.562;13.414;2023-07-16T12:27:11;5.28;;;1.75;;
35648;SDS011;21768;48.562;13.414;2023-07-16T12:29:37;2.60;;;1.80;;
35648;SDS011;21768;48.562;13.414;2023-07-16T12:32:05;3.60;;;1.90;;
35648;SDS011;21768;48.562;13.414;2023-07-16T12:34:31;2.22;;;1.73;;
35648;SDS011;21768;48.562;13.414;2023-07-16T12:36:56;2.33;;;1.60;;
35648;SDS011;21768;48.562;13.414;2023-07-16T12:39:22;1.67;;;1.50;;
35648;SDS011;21768;48.562;13.414;2023-07-16T12:41:47;1.92;;;1.80;;
35648;SDS011;21768;48.562;13.414;2023-07-16T12:44:13;2.03;;;1.52;;
35648;SDS011;21768;48.562;13.414;2023-07-16T12:46:38;2.40;;;1.75;;
35648;SDS011;21768;48.562;13.414;2023-07-16T12:49:03;2.13;;;1.55;;
35648;SDS011;21768;48.562;13.414;2023-07-16T12:51:29;1.88;;;1.67;;
35648;SDS011;21768;48.562;13.414;2023-07-16T12:53:54;1.73;;;1.50;;
35648;SDS011;21768;48.562;13.414;2023-07-16T12:56:19;2.90;;;1.65;;
35648;SDS011;21768;48.562;13.414;2023-07-16T12:58:46;2.08;;;1.70;;
35648;SDS011;21768;48.562;13.414;2023-07-16T13:01:12;2.15;;;1.77;;
35648;SDS011;21768;48.562;13.414;2023-07-16T13:03:38;3.85;;;1.88;;
35648;SDS011;21768;48.562;13.414;2023-07-16T13:06:03;1.67;;;1.58;;
35648;SDS011;21768;48.562;13.414;2023-07-16T13:08:29;2.50;;;1.70;;
35648;SDS011;21768;48.562;13.414;2023-07-16T13:10:56;2.03;;;1.55;;
35648;SDS011;21768;48.562;13.414;2023-07-16T13:13:21;2.65;;;1.58;;
35648;SDS011;21768;48.562;13.414;2023-07-16T13:15:47;3.50;;;1.80;;
35648;SDS011;21768;48.562;13.414;2023-07-16T13:18:13;2.30;;;1.88;;
35648;SDS011;21768;48.562;13.414;2023-07-16T13:20:38;19.98;;;2.60;;
35648;SDS011;21768;48.562;13.414;2023-07-16T13:23:04;3.22;;;1.52;;
35648;SDS011;21768;48.562;13.414;2023-07-16T13:25:29;3.53;;;1.60;;
35648;SDS011;21768;48.562;13.414;2023-07-16T13:27:58;2.63;;;1.67;;
35648;SDS011;21768;48.562;13.414;2023-07-16T13:30:23;7.05;;;1.55;;
35648;SDS011;21768;48.562;13.414;2023-07-16T13:32:48;2.88;;;1.88;;
35648;SDS011;21768;48.562;13.414;2023-07-16T13:35:14;2.90;;;2.03;;
35648;SDS011;21768;48.562;13.414;2023-07-16T13:37:41;2.35;;;1.60;;
35648;SDS011;21768;48.562;13.414;2023-07-16T13:40:07;5.30;;;3.50;;
35648;SDS011;21768;48.562;13.414;2023-07-16T13:42:33;2.53;;;1.92;;
35648;SDS011;21768;48.562;13.414;2023-07-16T13:44:58;1.98;;;1.55;;
35648;SDS011;21768;48.562;13.414;2023-07-16T13:47:24;2.85;;;1.60;;
35648;SDS011;21768;48.562;13.414;2023-07-16T13:49:50;3.17;;;2.17;;
35648;SDS011;21768;48.562;13.414;2023-07-16T13:52:16;3.72;;;1.80;;
35648;SDS011;21768;48.562;13.414;2023-07-16T13:54:41;1.83;;;1.63;;
35648;SDS011;21768;48.562;13.414;2023-07-16T13:57:07;3.45;;;1.40;;
35648;SDS011;21768;48.562;13.414;2023-07-16T13:59:33;3.08;;;1.60;;
35648;SDS011;21768;48.562;13.414;2023-07-16T14:01:59;3.38;;;1.70;;
35648;SDS011;21768;48.562;13.414;2023-07-16T14:04:26;3.92;;;1.50;;
35648;SDS011;21768;48.562;13.414;2023-07-16T14:06:52;3.60;;;2.00;;
35648;SDS011;21768;48.562;13.414;2023-07-16T14:09:18;2.63;;;1.50;;
35648;SDS011;21768;48.562;13.414;2023-07-16T14:11:44;1.90;;;1.80;;
35648;SDS011;21768;48.562;13.414;2023-07-16T14:14:12;3.78;;;1.98;;
35648;SDS011;21768;48.562;13.414;2023-07-16T14:16:41;4.18;;;1.80;;
35648;SDS011;21768;48.562;13.414;2023-07-16T14:19:08;2.33;;;1.58;;
35648;SDS011;21768;48.562;13.414;2023-07-16T14:21:34;2.35;;;1.77;;
35648;SDS011;21768;48.562;13.414;2023-07-16T14:23:59;1.92;;;1.73;;
35648;SDS011;21768;48.562;13.414;2023-07-16T14:26:25;2.10;;;1.60;;
35648;SDS011;21768;48.562;13.414;2023-07-16T14:28:50;1.80;;;1.60;;
35648;SDS011;21768;48.562;13.414;2023-07-16T14:31:15;2.08;;;1.50;;
35648;SDS011;21768;48.562;13.414;2023-07-16T14:33:41;2.58;;;1.63;;